sensor_id;sensor_type;location;lat;lon;timestamp;temperature;humidity
19680;DHT22;9989;48.962;9.182;2023-12-07T00:01:48;4.70;99.90
19680;DHT22;9989;48.962;9.182;2023-12-07T00:04:13;4.80;99.90
19680;DHT22;9989;48.962;9.182;2023-12-07T00:06:39;4.80;99.90
19680;DHT22;9989;48.962;9.182;2023-12-07T00:09:04;4.80;99.90
19680;DHT22;9989;48.962;9.182;2023-12-07T00:11:30;4.70;99.90
19680;DHT22;9989;48.962;9.182;2023-12-07T00:13:55;4.70;99.90
19680;DHT22;9989;48.962;9.182;2023-12-07T00:16:21;4.70;99.90
19680;DHT22;9989;48.962;9.182;2023-12-07T00:18:47;4.70;99.90
19680;DHT22;9989;48.962;9.182;2023-12-07T00:21:12;4.60;99.90
19680;DHT22;9989;48.962;9.182;2023-12-07T00:23:38;4.70;99.90
19680;DHT22;9989;48.962;9.182;2023-12-07T00:26:04;4.70;99.90
19680;DHT22;9989;48.962;9.182;2023-12-07T00:28:29;4.60;99.90
19680;DHT22;9989;48.962;9.182;2023-12-07T00:30:55;4.70;99.90
19680;DHT22;9989;48.962;9.182;2023-12-07T00:33:21;4.70;99.90
19680;DHT22;9989;48.962;9.182;2023-12-07T00:35:47;4.70;99.90
19680;DHT22;9989;48.962;9.182;2023-12-07T00:38:13;4.70;99.90
19680;DHT22;9989;48.962;9.182;2023-12-07T00:40:38;4.70;99.90
19680;DHT22;9989;48.962;9.182;2023-12-07T00:43:05;4.70;99.90
19680;DHT22;9989;48.962;9.182;2023-12-07T00:45:31;4.70;99.90
19680;DHT22;9989;48.962;9.182;2023-12-07T00:47:57;4.70;99.90
19680;DHT22;9989;48.962;9.182;2023-12-07T00:50:22;4.70;99.90
19680;DHT22;9989;48.962;9.182;2023-12-07T00:52:48;4.70;99.90
19680;DHT22;9989;48.962;9.182;2023-12-07T00:55:13;4.80;99.90
19680;DHT22;9989;48.962;9.182;2023-12-07T00:57:39;4.80;99.90
19680;DHT22;9989;48.962;9.182;2023-12-07T01:00:06;4.80;99.90
19680;DHT22;9989;48.962;9.182;2023-12-07T01:02:31;4.80;99.90
19680;DHT22;9989;48.962;9.182;2023-12-07T01:04:57;4.80;99.90
19680;DHT22;9989;48.962;9.182;2023-12-07T01:07:23;4.80;99.90
19680;DHT22;9989;48.962;9.182;2023-12-07T01:09:48;4.80;99.90
19680;DHT22;9989;48.962;9.182;2023-12-07T01:12:14;4.80;99.90
19680;DHT22;9989;48.962;9.182;2023-12-07T01:14:39;4.90;99.90
19680;DHT22;9989;48.962;9.182;2023-12-07T01:17:05;4.90;99.90
19680;DHT22;9989;48.962;9.182;2023-12-07T01:19:31;4.90;99.90
19680;DHT22;9989;48.962;9.182;2023-12-07T01:21:56;4.90;99.90
19680;DHT22;9989;48.962;9.182;2023-12-07T01:24:22;4.90;99.90
19680;DHT22;9989;48.962;9.182;2023-12-07T01:26:47;4.90;99.90
19680;DHT22;9989;48.962;9.182;2023-12-07T01:29:13;4.90;99.90
19680;DHT22;9989;48.962;9.182;2023-12-07T01:31:43;4.90;99.90
19680;DHT22;9989;48.962;9.182;2023-12-07T01:34:09;4.80;99.90
19680;DHT22;9989;48.962;9.182;2023-12-07T01:36:34;4.90;99.90
19680;DHT22;9989;48.962;9.182;2023-12-07T01:39:00;4.90;99.90
19680;DHT22;9989;48.962;9.182;2023-12-07T01:41:26;4.90;99.90
19680;DHT22;9989;48.962;9.182;2023-12-07T01:43:51;4.90;99.90
19680;DHT22;9989;48.962;9.182;2023-12-07T01:46:18;4.90;99.90
19680;DHT22;9989;48.962;9.182;2023-12-07T01:48:44;4.80;99.90
19680;DHT22;9989;48.962;9.182;2023-12-07T01:51:10;4.90;99.90
19680;DHT22;9989;48.962;9.182;2023-12-07T01:53:38;4.90;99.90
19680;DHT22;9989;48.962;9.182;2023-12-07T01:56:04;4.80;99.90
19680;DHT22;9989;48.962;9.182;2023-12-07T01:58:30;4.80;99.90
19680;DHT22;9989;48.962;9.182;2023-12-07T02:00:56;4.80;99.90
19680;DHT22;9989;48.962;9.182;2023-12-07T02:03:22;4.90;99.90
19680;DHT22;9989;48.962;9.182;2023-12-07T02:05:48;4.80;99.90
19680;DHT22;9989;48.962;9.182;2023-12-07T02:08:15;4.80;99.90
19680;DHT22;9989;48.962;9.182;2023-12-07T02:10:41;4.80;99.90
19680;DHT22;9989;48.962;9.182;2023-12-07T02:13:06;4.90;99.90
19680;DHT22;9989;48.962;9.182;2023-12-07T02:15:32;4.80;99.90
19680;DHT22;9989;48.962;9.182;2023-12-07T02:23:29;4.80;99.90
19680;DHT22;9989;48.962;9.182;2023-12-07T02:26:02;4.80;99.90
19680;DHT22;9989;48.962;9.182;2023-12-07T02:28:28;4.80;99.90
19680;DHT22;9989;48.962;9.182;2023-12-07T02:30:54;4.80;99.90
19680;DHT22;9989;48.962;9.182;2023-12-07T02:33:19;4.80;99.90
19680;DHT22;9989;48.962;9.182;2023-12-07T02:35:45;4.80;99.90
19680;DHT22;9989;48.962;9.182;2023-12-07T02:38:11;4.80;99.90
19680;DHT22;9989;48.962;9.182;2023-12-07T02:40:38;4.80;99.90
19680;DHT22;9989;48.962;9.182;2023-12-07T02:43:05;4.80;99.90
19680;DHT22;9989;48.962;9.182;2023-12-07T02:45:31;4.80;99.90
19680;DHT22;9989;48.962;9.182;2023-12-07T02:47:57;4.80;99.90
19680;DHT22;9989;48.962;9.182;2023-12-07T02:50:24;4.80;99.90
19680;DHT22;9989;48.962;9.182;2023-12-07T02:52:49;4.80;99.90
19680;DHT22;9989;48.962;9.182;2023-12-07T02:55:15;4.80;99.90
19680;DHT22;9989;48.962;9.182;2023-12-07T02:57:41;4.80;99.90
19680;DHT22;9989;48.962;9.182;2023-12-07T03:00:07;4.80;99.90
19680;DHT22;9989;48.962;9.182;2023-12-07T03:02:36;4.80;99.90
19680;DHT22;9989;48.962;9.182;2023-12-07T03:05:03;4.80;99.90
19680;DHT22;9989;48.962;9.182;2023-12-07T03:07:28;4.70;99.90
19680;DHT22;9989;48.962;9.182;2023-12-07T03:09:54;4.60;99.90
19680;DHT22;9989;48.962;9.182;2023-12-07T03:12:19;4.50;99.90
19680;DHT22;9989;48.962;9.182;2023-12-07T03:14:45;4.50;99.90
19680;DHT22;9989;48.962;9.182;2023-12-07T03:17:11;4.50;99.90
19680;DHT22;9989;48.962;9.182;2023-12-07T03:19:40;4.40;99.90
19680;DHT22;9989;48.962;9.182;2023-12-07T03:22:06;4.40;99.90
19680;DHT22;9989;48.962;9.182;2023-12-07T03:24:34;4.30;99.90
19680;DHT22;9989;48.962;9.182;2023-12-07T03:26:59;4.20;99.90
19680;DHT22;9989;48.962;9.182;2023-12-07T03:29:25;4.20;99.90
19680;DHT22;9989;48.962;9.182;2023-12-07T03:31:50;4.10;99.90
19680;DHT22;9989;48.962;9.182;2023-12-07T03:34:16;4.10;99.90
19680;DHT22;9989;48.962;9.182;2023-12-07T03:36:48;4.00;99.90
19680;DHT22;9989;48.962;9.182;2023-12-07T03:39:17;4.00;99.90
19680;DHT22;9989;48.962;9.182;2023-12-07T03:41:50;3.90;99.90
19680;DHT22;9989;48.962;9.182;2023-12-07T03:44:16;3.90;99.90
19680;DHT22;9989;48.962;9.182;2023-12-07T03:46:41;3.80;99.90
19680;DHT22;9989;48.962;9.182;2023-12-07T03:49:07;3.80;99.90
19680;DHT22;9989;48.962;9.182;2023-12-07T03:51:32;3.80;99.90
19680;DHT22;9989;48.962;9.182;2023-12-07T03:53:58;3.70;99.90
19680;DHT22;9989;48.962;9.182;2023-12-07T03:56:25;3.70;99.90
19680;DHT22;9989;48.962;9.182;2023-12-07T03:58:51;3.70;99.90
19680;DHT22;9989;48.962;9.182;2023-12-07T04:01:17;3.70;99.90
19680;DHT22;9989;48.962;9.182;2023-12-07T04:03:42;3.60;99.90
19680;DHT22;9989;48.962;9.182;2023-12-07T04:06:08;3.60;99.90
19680;DHT22;9989;48.962;9.182;2023-12-07T04:08:34;3.50;99.90
19680;DHT22;9989;48.962;9.182;2023-12-07T04:11:00;3.50;99.90
19680;DHT22;9989;48.962;9.182;2023-12-07T04:13:25;3.50;99.90
19680;DHT22;9989;48.962;9.182;2023-12-07T04:15:51;3.40;99.90
19680;DHT22;9989;48.962;9.182;2023-12-07T04:18:17;3.40;99.90
19680;DHT22;9989;48.962;9.182;2023-12-07T04:20:43;3.40;99.90
19680;DHT22;9989;48.962;9.182;2023-12-07T04:23:08;3.30;99.90
19680;DHT22;9989;48.962;9.182;2023-12-07T04:25:34;3.30;99.90
19680;DHT22;9989;48.962;9.182;2023-12-07T04:27:59;3.30;99.90
19680;DHT22;9989;48.962;9.182;2023-12-07T04:30:25;3.30;99.90
19680;DHT22;9989;48.962;9.182;2023-12-07T04:32:50;3.30;99.90
19680;DHT22;9989;48.962;9.182;2023-12-07T04:35:16;3.20;99.90
19680;DHT22;9989;48.962;9.182;2023-12-07T04:37:42;3.30;99.90
19680;DHT22;9989;48.962;9.182;2023-12-07T04:40:08;3.20;99.90
19680;DHT22;9989;48.962;9.182;2023-12-07T04:42:33;3.20;99.90
19680;DHT22;9989;48.962;9.182;2023-12-07T04:44:59;3.20;99.90
19680;DHT22;9989;48.962;9.182;2023-12-07T04:47:24;3.20;99.90
19680;DHT22;9989;48.962;9.182;2023-12-07T04:49:50;3.20;99.90
19680;DHT22;9989;48.962;9.182;2023-12-07T04:52:15;3.20;99.90
19680;DHT22;9989;48.962;9.182;2023-12-07T04:54:41;3.20;99.90
19680;DHT22;9989;48.962;9.182;2023-12-07T04:57:07;3.10;99.90
19680;DHT22;9989;48.962;9.182;2023-12-07T04:59:32;3.10;99.90
19680;DHT22;9989;48.962;9.182;2023-12-07T05:01:58;3.10;99.90
19680;DHT22;9989;48.962;9.182;2023-12-07T05:04:23;3.10;99.90
19680;DHT22;9989;48.962;9.182;2023-12-07T05:06:49;3.10;99.90
19680;DHT22;9989;48.962;9.182;2023-12-07T05:09:15;3.10;99.90
19680;DHT22;9989;48.962;9.182;2023-12-07T05:11:40;3.10;99.90
19680;DHT22;9989;48.962;9.182;2023-12-07T05:14:06;3.10;99.90
19680;DHT22;9989;48.962;9.182;2023-12-07T05:16:32;3.10;99.90
19680;DHT22;9989;48.962;9.182;2023-12-07T05:18:58;3.10;99.90
19680;DHT22;9989;48.962;9.182;2023-12-07T05:21:23;3.10;99.90
19680;DHT22;9989;48.962;9.182;2023-12-07T05:23:50;3.10;99.90
19680;DHT22;9989;48.962;9.182;2023-12-07T05:26:15;3.10;99.90
19680;DHT22;9989;48.962;9.182;2023-12-07T05:28:41;3.10;99.90
19680;DHT22;9989;48.962;9.182;2023-12-07T05:31:06;3.10;99.90
19680;DHT22;9989;48.962;9.182;2023-12-07T05:33:32;3.00;99.90
19680;DHT22;9989;48.962;9.182;2023-12-07T05:35:58;3.00;99.90
19680;DHT22;9989;48.962;9.182;2023-12-07T05:38:24;3.00;99.90
19680;DHT22;9989;48.962;9.182;2023-12-07T05:40:49;3.00;99.90
19680;DHT22;9989;48.962;9.182;2023-12-07T05:43:15;3.00;99.90
19680;DHT22;9989;48.962;9.182;2023-12-07T05:45:40;3.00;99.90
19680;DHT22;9989;48.962;9.182;2023-12-07T05:48:06;3.00;99.90
19680;DHT22;9989;48.962;9.182;2023-12-07T05:50:31;3.00;99.90
19680;DHT22;9989;48.962;9.182;2023-12-07T05:52:57;3.00;99.90
19680;DHT22;9989;48.962;9.182;2023-12-07T05:55:23;3.00;99.90
19680;DHT22;9989;48.962;9.182;2023-12-07T05:57:48;3.00;99.90
19680;DHT22;9989;48.962;9.182;2023-12-07T06:00:14;3.00;99.90
19680;DHT22;9989;48.962;9.182;2023-12-07T06:02:41;3.00;99.90
19680;DHT22;9989;48.962;9.182;2023-12-07T06:05:07;3.00;99.90
19680;DHT22;9989;48.962;9.182;2023-12-07T06:07:33;3.00;99.90
19680;DHT22;9989;48.962;9.182;2023-12-07T06:09:59;2.90;99.90
19680;DHT22;9989;48.962;9.182;2023-12-07T06:12:24;2.90;99.90
19680;DHT22;9989;48.962;9.182;2023-12-07T06:14:50;2.90;99.90
19680;DHT22;9989;48.962;9.182;2023-12-07T06:17:16;2.80;99.90
19680;DHT22;9989;48.962;9.182;2023-12-07T06:19:41;2.80;99.90
19680;DHT22;9989;48.962;9.182;2023-12-07T06:22:08;2.80;99.90
19680;DHT22;9989;48.962;9.182;2023-12-07T06:24:33;2.70;99.90
19680;DHT22;9989;48.962;9.182;2023-12-07T06:27:00;2.70;99.90
19680;DHT22;9989;48.962;9.182;2023-12-07T06:29:27;2.70;99.90
19680;DHT22;9989;48.962;9.182;2023-12-07T06:31:53;2.70;99.90
19680;DHT22;9989;48.962;9.182;2023-12-07T06:34:18;2.60;99.90
19680;DHT22;9989;48.962;9.182;2023-12-07T06:36:45;2.60;99.90
19680;DHT22;9989;48.962;9.182;2023-12-07T06:39:10;2.60;99.90
19680;DHT22;9989;48.962;9.182;2023-12-07T06:41:36;2.60;99.90
19680;DHT22;9989;48.962;9.182;2023-12-07T06:44:01;2.60;99.90
19680;DHT22;9989;48.962;9.182;2023-12-07T06:46:27;2.60;99.90
19680;DHT22;9989;48.962;9.182;2023-12-07T06:48:53;2.50;99.90
19680;DHT22;9989;48.962;9.182;2023-12-07T06:51:18;2.50;99.90
19680;DHT22;9989;48.962;9.182;2023-12-07T06:53:44;2.50;99.90
19680;DHT22;9989;48.962;9.182;2023-12-07T06:56:09;2.50;99.90
19680;DHT22;9989;48.962;9.182;2023-12-07T06:58:35;2.50;99.90
19680;DHT22;9989;48.962;9.182;2023-12-07T07:01:00;2.60;99.90
19680;DHT22;9989;48.962;9.182;2023-12-07T07:03:26;2.60;99.90
19680;DHT22;9989;48.962;9.182;2023-12-07T07:05:54;2.50;99.90
19680;DHT22;9989;48.962;9.182;2023-12-07T07:08:19;2.50;99.90
19680;DHT22;9989;48.962;9.182;2023-12-07T07:10:45;2.60;99.90
19680;DHT22;9989;48.962;9.182;2023-12-07T07:13:12;2.60;99.90
19680;DHT22;9989;48.962;9.182;2023-12-07T07:15:41;2.60;99.90
19680;DHT22;9989;48.962;9.182;2023-12-07T07:18:07;2.60;99.90
19680;DHT22;9989;48.962;9.182;2023-12-07T07:20:34;2.70;99.90
19680;DHT22;9989;48.962;9.182;2023-12-07T07:22:59;2.90;99.90
19680;DHT22;9989;48.962;9.182;2023-12-07T07:25:25;3.20;99.90
19680;DHT22;9989;48.962;9.182;2023-12-07T07:27:50;3.50;99.90
19680;DHT22;9989;48.962;9.182;2023-12-07T07:30:17;3.90;99.90
19680;DHT22;9989;48.962;9.182;2023-12-07T07:32:43;4.40;99.90
19680;DHT22;9989;48.962;9.182;2023-12-07T07:35:08;4.90;99.90
19680;DHT22;9989;48.962;9.182;2023-12-07T07:37:37;5.40;99.90
19680;DHT22;9989;48.962;9.182;2023-12-07T07:40:03;5.90;99.90
19680;DHT22;9989;48.962;9.182;2023-12-07T07:42:32;6.40;99.90
19680;DHT22;9989;48.962;9.182;2023-12-07T07:44:58;6.90;99.90
19680;DHT22;9989;48.962;9.182;2023-12-07T07:47:23;7.40;99.90
19680;DHT22;9989;48.962;9.182;2023-12-07T07:49:49;7.90;99.90
19680;DHT22;9989;48.962;9.182;2023-12-07T07:52:14;8.50;99.90
19680;DHT22;9989;48.962;9.182;2023-12-07T07:54:40;9.10;99.90
19680;DHT22;9989;48.962;9.182;2023-12-07T07:57:05;9.60;99.90
19680;DHT22;9989;48.962;9.182;2023-12-07T07:59:31;10.20;99.90
19680;DHT22;9989;48.962;9.182;2023-12-07T08:01:57;10.80;99.90
19680;DHT22;9989;48.962;9.182;2023-12-07T08:04:22;11.40;99.90
19680;DHT22;9989;48.962;9.182;2023-12-07T08:06:48;12.00;99.90
19680;DHT22;9989;48.962;9.182;2023-12-07T08:09:14;12.50;99.90
19680;DHT22;9989;48.962;9.182;2023-12-07T08:11:39;13.10;99.90
19680;DHT22;9989;48.962;9.182;2023-12-07T08:14:05;13.70;99.90
19680;DHT22;9989;48.962;9.182;2023-12-07T08:16:31;14.30;98.70
19680;DHT22;9989;48.962;9.182;2023-12-07T08:18:56;14.80;96.30
19680;DHT22;9989;48.962;9.182;2023-12-07T08:21:24;15.40;94.30
19680;DHT22;9989;48.962;9.182;2023-12-07T08:23:51;16.00;92.20
19680;DHT22;9989;48.962;9.182;2023-12-07T08:26:16;16.60;90.40
19680;DHT22;9989;48.962;9.182;2023-12-07T08:28:42;17.20;86.70
19680;DHT22;9989;48.962;9.182;2023-12-07T08:31:08;17.80;83.50
19680;DHT22;9989;48.962;9.182;2023-12-07T08:33:34;18.40;79.90
19680;DHT22;9989;48.962;9.182;2023-12-07T08:36:00;19.00;76.10
19680;DHT22;9989;48.962;9.182;2023-12-07T08:38:26;19.60;73.10
19680;DHT22;9989;48.962;9.182;2023-12-07T08:40:52;20.20;70.30
19680;DHT22;9989;48.962;9.182;2023-12-07T08:43:21;20.70;67.60
19680;DHT22;9989;48.962;9.182;2023-12-07T08:45:48;21.30;65.00
19680;DHT22;9989;48.962;9.182;2023-12-07T08:48:14;21.80;62.70
19680;DHT22;9989;48.962;9.182;2023-12-07T08:50:39;22.30;60.60
19680;DHT22;9989;48.962;9.182;2023-12-07T08:53:06;22.80;59.00
19680;DHT22;9989;48.962;9.182;2023-12-07T08:55:32;23.30;57.60
19680;DHT22;9989;48.962;9.182;2023-12-07T08:57:57;23.70;56.30
19680;DHT22;9989;48.962;9.182;2023-12-07T09:00:25;24.00;55.20
19680;DHT22;9989;48.962;9.182;2023-12-07T09:02:51;24.40;54.60
19680;DHT22;9989;48.962;9.182;2023-12-07T09:05:17;24.80;52.50
19680;DHT22;9989;48.962;9.182;2023-12-07T09:07:43;25.20;51.50
19680;DHT22;9989;48.962;9.182;2023-12-07T09:10:10;25.50;50.60
19680;DHT22;9989;48.962;9.182;2023-12-07T09:12:35;25.40;49.30
19680;DHT22;9989;48.962;9.182;2023-12-07T09:15:02;25.00;49.30
19680;DHT22;9989;48.962;9.182;2023-12-07T09:17:28;24.80;49.60
19680;DHT22;9989;48.962;9.182;2023-12-07T09:19:54;24.90;49.60
19680;DHT22;9989;48.962;9.182;2023-12-07T09:22:19;25.10;48.90
19680;DHT22;9989;48.962;9.182;2023-12-07T09:24:45;25.60;48.40
19680;DHT22;9989;48.962;9.182;2023-12-07T09:27:13;26.00;47.60
19680;DHT22;9989;48.962;9.182;2023-12-07T09:29:39;26.50;47.20
19680;DHT22;9989;48.962;9.182;2023-12-07T09:32:06;27.00;46.20
19680;DHT22;9989;48.962;9.182;2023-12-07T09:34:31;27.30;45.30
19680;DHT22;9989;48.962;9.182;2023-12-07T09:37:09;27.70;44.70
19680;DHT22;9989;48.962;9.182;2023-12-07T09:39:35;28.00;44.00
19680;DHT22;9989;48.962;9.182;2023-12-07T09:42:01;28.40;43.30
19680;DHT22;9989;48.962;9.182;2023-12-07T09:44:27;28.90;42.70
19680;DHT22;9989;48.962;9.182;2023-12-07T09:46:53;29.40;41.70
19680;DHT22;9989;48.962;9.182;2023-12-07T09:49:20;29.80;40.80
19680;DHT22;9989;48.962;9.182;2023-12-07T09:51:46;30.10;40.20
19680;DHT22;9989;48.962;9.182;2023-12-07T09:54:12;29.80;39.70
19680;DHT22;9989;48.962;9.182;2023-12-07T09:56:38;29.60;39.90
19680;DHT22;9989;48.962;9.182;2023-12-07T09:59:04;29.60;39.80
19680;DHT22;9989;48.962;9.182;2023-12-07T10:01:30;29.90;39.60
19680;DHT22;9989;48.962;9.182;2023-12-07T10:04:22;30.30;39.00
19680;DHT22;9989;48.962;9.182;2023-12-07T10:06:49;30.70;38.70
19680;DHT22;9989;48.962;9.182;2023-12-07T10:09:15;30.90;38.00
19680;DHT22;9989;48.962;9.182;2023-12-07T10:11:41;31.00;37.60
19680;DHT22;9989;48.962;9.182;2023-12-07T10:14:07;31.10;37.10
19680;DHT22;9989;48.962;9.182;2023-12-07T10:16:33;31.10;37.10
19680;DHT22;9989;48.962;9.182;2023-12-07T10:19:14;31.40;37.40
19680;DHT22;9989;48.962;9.182;2023-12-07T10:21:40;31.80;36.70
19680;DHT22;9989;48.962;9.182;2023-12-07T10:24:06;32.00;36.70
19680;DHT22;9989;48.962;9.182;2023-12-07T10:26:32;32.40;35.80
19680;DHT22;9989;48.962;9.182;2023-12-07T10:28:57;32.80;35.00
19680;DHT22;9989;48.962;9.182;2023-12-07T10:31:25;33.10;34.90
19680;DHT22;9989;48.962;9.182;2023-12-07T10:33:51;33.40;34.30
19680;DHT22;9989;48.962;9.182;2023-12-07T10:36:17;33.60;33.20
19680;DHT22;9989;48.962;9.182;2023-12-07T10:38:42;33.50;33.20
19680;DHT22;9989;48.962;9.182;2023-12-07T10:41:12;33.20;33.30
19680;DHT22;9989;48.962;9.182;2023-12-07T10:43:43;33.10;33.20
19680;DHT22;9989;48.962;9.182;2023-12-07T10:46:09;32.90;32.90
19680;DHT22;9989;48.962;9.182;2023-12-07T10:48:35;32.50;33.30
19680;DHT22;9989;48.962;9.182;2023-12-07T10:51:05;32.30;33.60
19680;DHT22;9989;48.962;9.182;2023-12-07T10:53:37;32.20;34.10
19680;DHT22;9989;48.962;9.182;2023-12-07T10:56:14;32.30;33.80
19680;DHT22;9989;48.962;9.182;2023-12-07T10:58:42;32.40;33.30
19680;DHT22;9989;48.962;9.182;2023-12-07T11:01:08;32.40;33.30
19680;DHT22;9989;48.962;9.182;2023-12-07T11:03:35;32.10;33.40
19680;DHT22;9989;48.962;9.182;2023-12-07T11:06:02;31.80;33.70
19680;DHT22;9989;48.962;9.182;2023-12-07T11:08:44;31.70;33.40
19680;DHT22;9989;48.962;9.182;2023-12-07T11:12:04;31.30;34.00
19680;DHT22;9989;48.962;9.182;2023-12-07T11:14:10;31.10;34.10
19680;DHT22;9989;48.962;9.182;2023-12-07T11:16:40;30.90;35.00
19680;DHT22;9989;48.962;9.182;2023-12-07T11:22:05;31.10;34.40
19680;DHT22;9989;48.962;9.182;2023-12-07T11:24:31;30.80;34.20
19680;DHT22;9989;48.962;9.182;2023-12-07T11:26:57;30.20;34.70
19680;DHT22;9989;48.962;9.182;2023-12-07T11:29:28;29.70;35.30
19680;DHT22;9989;48.962;9.182;2023-12-07T11:32:02;29.50;35.80
19680;DHT22;9989;48.962;9.182;2023-12-07T11:34:39;29.30;35.80
19680;DHT22;9989;48.962;9.182;2023-12-07T11:37:06;28.80;36.10
19680;DHT22;9989;48.962;9.182;2023-12-07T11:39:36;28.20;37.80
19680;DHT22;9989;48.962;9.182;2023-12-07T11:42:17;28.00;38.10
19680;DHT22;9989;48.962;9.182;2023-12-07T11:44:47;27.90;37.70
19680;DHT22;9989;48.962;9.182;2023-12-07T11:47:18;27.90;37.60
19680;DHT22;9989;48.962;9.182;2023-12-07T11:49:44;27.80;37.70
19680;DHT22;9989;48.962;9.182;2023-12-07T11:52:20;27.80;38.20
19680;DHT22;9989;48.962;9.182;2023-12-07T11:54:47;27.70;38.30
19680;DHT22;9989;48.962;9.182;2023-12-07T11:57:18;27.70;38.60
19680;DHT22;9989;48.962;9.182;2023-12-07T11:59:44;27.90;38.40
19680;DHT22;9989;48.962;9.182;2023-12-07T12:02:13;28.30;38.40
19680;DHT22;9989;48.962;9.182;2023-12-07T12:04:42;28.80;37.90
19680;DHT22;9989;48.962;9.182;2023-12-07T12:07:08;29.50;36.70
19680;DHT22;9989;48.962;9.182;2023-12-07T12:09:33;29.90;35.20
19680;DHT22;9989;48.962;9.182;2023-12-07T12:11:59;30.10;35.10
19680;DHT22;9989;48.962;9.182;2023-12-07T12:14:26;29.90;35.10
19680;DHT22;9989;48.962;9.182;2023-12-07T12:16:52;29.70;35.50
19680;DHT22;9989;48.962;9.182;2023-12-07T12:19:18;29.70;35.60
19680;DHT22;9989;48.962;9.182;2023-12-07T12:21:45;29.90;34.80
19680;DHT22;9989;48.962;9.182;2023-12-07T12:24:12;29.90;34.70
19680;DHT22;9989;48.962;9.182;2023-12-07T12:26:39;29.90;35.10
19680;DHT22;9989;48.962;9.182;2023-12-07T12:29:07;29.60;34.50
19680;DHT22;9989;48.962;9.182;2023-12-07T12:31:34;28.50;35.20
19680;DHT22;9989;48.962;9.182;2023-12-07T12:34:02;27.50;36.20
19680;DHT22;9989;48.962;9.182;2023-12-07T12:36:28;27.10;36.40
19680;DHT22;9989;48.962;9.182;2023-12-07T12:38:55;27.20;36.60
19680;DHT22;9989;48.962;9.182;2023-12-07T12:41:22;27.50;37.00
19680;DHT22;9989;48.962;9.182;2023-12-07T12:43:48;27.90;36.90
19680;DHT22;9989;48.962;9.182;2023-12-07T12:46:15;28.20;36.20
19680;DHT22;9989;48.962;9.182;2023-12-07T12:48:56;28.40;35.90
19680;DHT22;9989;48.962;9.182;2023-12-07T12:51:24;28.80;36.00
19680;DHT22;9989;48.962;9.182;2023-12-07T12:53:51;29.10;35.30
19680;DHT22;9989;48.962;9.182;2023-12-07T12:56:18;28.80;35.40
19680;DHT22;9989;48.962;9.182;2023-12-07T12:58:45;28.50;35.10
19680;DHT22;9989;48.962;9.182;2023-12-07T13:01:11;28.40;36.00
19680;DHT22;9989;48.962;9.182;2023-12-07T13:03:37;28.60;35.30
19680;DHT22;9989;48.962;9.182;2023-12-07T13:06:02;28.80;35.80
19680;DHT22;9989;48.962;9.182;2023-12-07T13:08:28;29.10;35.10
19680;DHT22;9989;48.962;9.182;2023-12-07T13:10:54;29.60;34.50
19680;DHT22;9989;48.962;9.182;2023-12-07T13:13:19;30.10;33.30
19680;DHT22;9989;48.962;9.182;2023-12-07T13:15:46;30.50;33.50
19680;DHT22;9989;48.962;9.182;2023-12-07T13:18:11;30.80;32.30
19680;DHT22;9989;48.962;9.182;2023-12-07T13:20:37;30.60;32.40
19680;DHT22;9989;48.962;9.182;2023-12-07T13:23:02;30.10;32.40
19680;DHT22;9989;48.962;9.182;2023-12-07T13:25:28;29.20;33.10
19680;DHT22;9989;48.962;9.182;2023-12-07T13:27:54;28.00;34.30
19680;DHT22;9989;48.962;9.182;2023-12-07T13:30:19;26.90;35.90
19680;DHT22;9989;48.962;9.182;2023-12-07T13:32:45;26.00;36.40
19680;DHT22;9989;48.962;9.182;2023-12-07T13:35:11;25.20;37.10
19680;DHT22;9989;48.962;9.182;2023-12-07T13:37:38;24.40;38.50
19680;DHT22;9989;48.962;9.182;2023-12-07T13:40:04;23.90;39.50
19680;DHT22;9989;48.962;9.182;2023-12-07T13:42:35;23.60;39.80
19680;DHT22;9989;48.962;9.182;2023-12-07T13:45:01;23.40;40.10
19680;DHT22;9989;48.962;9.182;2023-12-07T13:47:27;23.40;40.20
19680;DHT22;9989;48.962;9.182;2023-12-07T13:50:02;23.40;40.00
19680;DHT22;9989;48.962;9.182;2023-12-07T13:52:29;23.10;40.30
19680;DHT22;9989;48.962;9.182;2023-12-07T13:54:55;22.80;40.80
19680;DHT22;9989;48.962;9.182;2023-12-07T13:57:21;22.40;41.40
19680;DHT22;9989;48.962;9.182;2023-12-07T13:59:50;22.10;42.10
19680;DHT22;9989;48.962;9.182;2023-12-07T14:02:16;21.90;42.70
19680;DHT22;9989;48.962;9.182;2023-12-07T14:04:41;21.80;41.80
19680;DHT22;9989;48.962;9.182;2023-12-07T14:09:34;21.80;42.60
19680;DHT22;9989;48.962;9.182;2023-12-07T14:12:00;21.80;41.60
19680;DHT22;9989;48.962;9.182;2023-12-07T14:14:25;21.50;41.00
19680;DHT22;9989;48.962;9.182;2023-12-07T14:16:51;21.50;41.90
19680;DHT22;9989;48.962;9.182;2023-12-07T14:19:16;22.00;41.70
19680;DHT22;9989;48.962;9.182;2023-12-07T14:21:42;22.80;40.90
19680;DHT22;9989;48.962;9.182;2023-12-07T14:24:08;23.30;39.70
19680;DHT22;9989;48.962;9.182;2023-12-07T14:26:34;22.90;40.20
19680;DHT22;9989;48.962;9.182;2023-12-07T14:29:01;22.00;41.20
19680;DHT22;9989;48.962;9.182;2023-12-07T14:31:26;20.90;42.70
19680;DHT22;9989;48.962;9.182;2023-12-07T14:33:52;19.80;44.30
19680;DHT22;9989;48.962;9.182;2023-12-07T14:36:18;18.70;46.20
19680;DHT22;9989;48.962;9.182;2023-12-07T14:38:45;17.70;47.80
19680;DHT22;9989;48.962;9.182;2023-12-07T14:41:10;16.80;49.40
19680;DHT22;9989;48.962;9.182;2023-12-07T14:43:38;15.90;50.70
19680;DHT22;9989;48.962;9.182;2023-12-07T14:46:06;15.20;52.10
19680;DHT22;9989;48.962;9.182;2023-12-07T14:48:33;14.50;53.10
19680;DHT22;9989;48.962;9.182;2023-12-07T14:50:58;13.90;54.00
19680;DHT22;9989;48.962;9.182;2023-12-07T14:53:24;13.40;55.30
19680;DHT22;9989;48.962;9.182;2023-12-07T14:55:51;12.90;56.40
19680;DHT22;9989;48.962;9.182;2023-12-07T14:58:17;12.50;57.30
19680;DHT22;9989;48.962;9.182;2023-12-07T15:00:42;12.10;58.00
19680;DHT22;9989;48.962;9.182;2023-12-07T15:03:08;11.80;59.10
19680;DHT22;9989;48.962;9.182;2023-12-07T15:05:33;11.50;60.20
19680;DHT22;9989;48.962;9.182;2023-12-07T15:07:59;11.20;61.20
19680;DHT22;9989;48.962;9.182;2023-12-07T15:10:25;10.90;62.00
19680;DHT22;9989;48.962;9.182;2023-12-07T15:12:50;10.60;62.50
19680;DHT22;9989;48.962;9.182;2023-12-07T15:15:17;10.40;62.50
19680;DHT22;9989;48.962;9.182;2023-12-07T15:17:42;10.20;63.10
19680;DHT22;9989;48.962;9.182;2023-12-07T15:20:08;10.00;63.50
19680;DHT22;9989;48.962;9.182;2023-12-07T15:22:35;9.80;64.30
19680;DHT22;9989;48.962;9.182;2023-12-07T15:25:01;9.60;64.50
19680;DHT22;9989;48.962;9.182;2023-12-07T15:27:26;9.40;65.20
19680;DHT22;9989;48.962;9.182;2023-12-07T15:29:52;9.20;65.40
19680;DHT22;9989;48.962;9.182;2023-12-07T15:32:18;9.00;66.20
19680;DHT22;9989;48.962;9.182;2023-12-07T15:34:43;8.90;66.60
19680;DHT22;9989;48.962;9.182;2023-12-07T15:37:09;8.70;67.70
19680;DHT22;9989;48.962;9.182;2023-12-07T15:39:39;8.60;67.10
19680;DHT22;9989;48.962;9.182;2023-12-07T15:42:04;8.50;67.40
19680;DHT22;9989;48.962;9.182;2023-12-07T15:44:30;8.40;67.50
19680;DHT22;9989;48.962;9.182;2023-12-07T15:46:55;8.30;67.80
19680;DHT22;9989;48.962;9.182;2023-12-07T15:49:21;8.20;68.00
19680;DHT22;9989;48.962;9.182;2023-12-07T15:51:47;8.10;67.10
19680;DHT22;9989;48.962;9.182;2023-12-07T15:54:13;8.00;67.00
19680;DHT22;9989;48.962;9.182;2023-12-07T15:56:41;7.90;67.20
19680;DHT22;9989;48.962;9.182;2023-12-07T15:59:07;7.80;67.70
19680;DHT22;9989;48.962;9.182;2023-12-07T16:01:32;7.70;68.00